Algowood — VCTD — position and weather

sailwx.info

Track history (hours):
 
Tides and Currents Weather Stations Pressure Air Temp Water Temp Dewpoint Dewpoint Depression Visibility Wind Speed Wind Dir Waves Ship Positions

Algowood

Last reported at 2018-May-26 01:57 UTC. Time now 2018-May-26 23:13 UTC.
Position N 46°05' W 073°02'.

Length 223 m; draft 8.1 m.

Type: Cargo ship. MMSI: 316001802.

Date/timePositionNaut miles runAvg speedWind from/ knotsBaromVisibWave heightAir tempDewpointWater temp
2018-May-26 01:57N 46°05' W 073°02'511.7
2018-May-26 01:30N 46°03' W 073°09'611.6
2018-May-26 01:00N 45°58' W 073°12'612.3
2018-May-26 00:30N 45°52' W 073°16'612.4
2018-May-26 00:00N 45°47' W 073°21'612.9
2018-May-25 23:30N 45°42' W 073°27'611.5
2018-May-25 22:59N 45°37' W 073°30'6 8.3
2018-May-25 22:16N 45°31' W 073°31'1 3.6
2018-May-25 22:01N 45°30' W 073°31'0 0.4
2018-May-25 21:30N 45°30' W 073°31'0 1.0
2018-May-25 21:00N 45°29' W 073°31'2 3.2
2018-May-25 20:31N 45°28' W 073°30'2 4.6
2018-May-25 20:01N 45°25' W 073°30'2 4.9
2018-May-25 19:31N 45°24' W 073°34'0 0.5
2018-May-25 19:01N 45°24' W 073°34'1 1.2
2018-May-25 18:31N 45°24' W 073°35'2 3.4
2018-May-25 17:59N 45°24' W 073°37'3 5.4
2018-May-25 17:30N 45°25' W 073°41'3 6.8
2018-May-25 17:00N 45°24' W 073°45'611.0
2018-May-25 16:30N 45°21' W 073°52'3 6.2
2018-May-25 16:00N 45°19' W 073°55'0 0.5
2018-May-25 15:30N 45°19' W 073°55'1 1.2
2018-May-25 15:01N 45°18' W 073°56'0 0.4
2018-May-25 14:30N 45°18' W 073°56'1 1.9
2018-May-25 13:59N 45°17' W 073°56'  
Track history (hours):
 
Tides and Currents Weather Stations Pressure Air Temp Water Temp Dewpoint Dewpoint Depression Visibility Wind Speed Wind Dir Waves Ship Positions

Algowood

Last reported at 2018-May-26 01:57 UTC. Time now 2018-May-26 23:13 UTC.
Position N 46°05' W 073°02'.

Length 223 m; draft 8.1 m.

Type: Cargo ship. MMSI: 316001802.

Date/timePositionNaut miles runAvg speedWind from/ knotsBaromVisibWave heightAir tempDewpointWater temp
2018-May-26 01:57N 46°05' W 073°02'511.7
2018-May-26 01:30N 46°03' W 073°09'611.6
2018-May-26 01:00N 45°58' W 073°12'612.3
2018-May-26 00:30N 45°52' W 073°16'612.4
2018-May-26 00:00N 45°47' W 073°21'612.9
2018-May-25 23:30N 45°42' W 073°27'611.5
2018-May-25 22:59N 45°37' W 073°30'6 8.3
2018-May-25 22:16N 45°31' W 073°31'1 3.6
2018-May-25 22:01N 45°30' W 073°31'0 0.4
2018-May-25 21:30N 45°30' W 073°31'0 1.0
2018-May-25 21:00N 45°29' W 073°31'2 3.2
2018-May-25 20:31N 45°28' W 073°30'2 4.6
2018-May-25 20:01N 45°25' W 073°30'2 4.9
2018-May-25 19:31N 45°24' W 073°34'0 0.5
2018-May-25 19:01N 45°24' W 073°34'1 1.2
2018-May-25 18:31N 45°24' W 073°35'2 3.4
2018-May-25 17:59N 45°24' W 073°37'3 5.4
2018-May-25 17:30N 45°25' W 073°41'3 6.8
2018-May-25 17:00N 45°24' W 073°45'611.0
2018-May-25 16:30N 45°21' W 073°52'3 6.2
2018-May-25 16:00N 45°19' W 073°55'0 0.5
2018-May-25 15:30N 45°19' W 073°55'1 1.2
2018-May-25 15:01N 45°18' W 073°56'0 0.4
2018-May-25 14:30N 45°18' W 073°56'1 1.9
2018-May-25 13:59N 45°17' W 073°56'  

Dump ship's entire track history